Observation data for Muleshoe on 01/19/2019      Previous  Date  Next       Current Mesonet Observations  Soil Data  Daily Summary Page  Observations in Plain Language
KMUS 190600Z 34018G26KT 01/M01 A3012 RMK A01 T00071012  RH  088%=      5-min Rain = 0
KMUS 190605Z 34015G20KT 01/M01 A3012 RMK A01 T00071012  RH  088%=      5-min Rain = 0
KMUS 190610Z 33014KT 01/M01 A3013 RMK A01 T00061012  RH  089%=      5-min Rain = 0
KMUS 190615Z 34018G24KT 01/M01 A3013 RMK A01 T00061014  RH  087%=      5-min Rain = 0
KMUS 190620Z 34015G21KT 01/M01 A3013 RMK A01 T00071014  RH  087%=      5-min Rain = 0
KMUS 190625Z 34013G18KT 01/M01 A3013 RMK A01 T00061014  RH  087%=      5-min Rain = 0
KMUS 190630Z 33017G24KT 01/M02 A3013 RMK A01 T00061015  RH  087%=      5-min Rain = 0
KMUS 190635Z 34017G23KT 01/M02 A3014 RMK A01 T00061018  RH  085%=      5-min Rain = 0
KMUS 190640Z 34016G21KT 01/M02 A3014 RMK A01 T00051018  RH  085%=      5-min Rain = 0
KMUS 190645Z 34013G20KT 00/M02 A3014 RMK A01 T00041019  RH  086%=      5-min Rain = 0
KMUS 190650Z 34013G19KT 00/M02 A3014 RMK A01 T00031019  RH  086%=      5-min Rain = 0
KMUS 190655Z 34012KT 00/M02 A3014 RMK A01 T00031019  RH  086%=      5-min Rain = 0
KMUS 190700Z 33012KT 00/M02 A3014 RMK A01 T00021019  RH  086%=      5-min Rain = 0
KMUS 190705Z 33012KT 00/M02 A3014 RMK A01 T00011019  RH  087%=      5-min Rain = 0
KMUS 190710Z 33012KT 00/02 A3015 RMK A01 T00-00-20  RH  088%=      5-min Rain = 0
KMUS 190715Z 33015G22KT 00/M02 A3015 RMK A01 T00011020  RH  087%=      5-min Rain = 0
KMUS 190720Z 33014KT 00/M02 A3016 RMK A01 T00011021  RH  086%=      5-min Rain = 0
KMUS 190725Z 33012KT 00/02 A3016 RMK A01 T00000-21  RH  086%=      5-min Rain = 0
KMUS 190730Z 32011KT M00/M02 A3016 RMK A01 T10011021  RH  087%=      5-min Rain = 0
KMUS 190735Z 33012G18KT 00/02 A3016 RMK A01 T00000-22  RH  086%=      5-min Rain = 0
KMUS 190740Z 33010KT M00/M02 A3016 RMK A01 T10011022  RH  086%=      5-min Rain = 0
KMUS 190745Z 33010KT M00/M02 A3016 RMK A01 T10021022  RH  087%=      5-min Rain = 0
KMUS 190750Z 33008KT M00/M02 A3017 RMK A01 T10031022  RH  088%=      5-min Rain = 0
KMUS 190755Z 32008KT M01/M02 A3017 RMK A01 T10051023  RH  089%=      5-min Rain = 0
KMUS 190800Z 31009KT M01/M02 A3017 RMK A01 T10051022  RH  089%=      5-min Rain = 0
KMUS 190805Z 31009KT M00/M02 A3017 RMK A01 T10041022  RH  089%=      5-min Rain = 0
KMUS 190810Z 31010G15KT M00/M02 A3016 RMK A01 T10041022  RH  088%=      5-min Rain = 0
KMUS 190815Z 31009KT M01/M02 A3017 RMK A01 T10051023  RH  089%=      5-min Rain = 0
KMUS 190820Z 31009KT M01/M02 A3016 RMK A01 T10051022  RH  089%=      5-min Rain = 0
KMUS 190825Z 32009KT M01/M02 A3016 RMK A01 T10051022  RH  089%=      5-min Rain = 0
KMUS 190830Z 32010KT M00/M02 A3017 RMK A01 T10031022  RH  088%=      5-min Rain = 0
KMUS 190835Z 32010KT M00/M02 A3017 RMK A01 T10031022  RH  087%=      5-min Rain = 0
KMUS 190840Z 32010KT M00/M02 A3017 RMK A01 T10041023  RH  088%=      5-min Rain = 0
KMUS 190845Z 32009KT M01/M02 A3017 RMK A01 T10051023  RH  088%=      5-min Rain = 0
KMUS 190850Z 32009KT M01/M02 A3017 RMK A01 T10061024  RH  088%=      5-min Rain = 0
KMUS 190855Z 32008KT M01/M03 A3017 RMK A01 T10071026  RH  088%=      5-min Rain = 0
KMUS 190900Z 32008KT M01/M03 A3017 RMK A01 T10101026  RH  089%=      5-min Rain = 0
KMUS 190905Z 31008KT M01/M03 A3017 RMK A01 T10111027  RH  090%=      5-min Rain = 0
KMUS 190910Z 31007KT M01/M03 A3017 RMK A01 T10121027  RH  090%=      5-min Rain = 0
KMUS 190915Z 31007KT M01/M03 A3017 RMK A01 T10131027  RH  091%=      5-min Rain = 0
KMUS 190920Z 30006KT M02/M03 A3017 RMK A01 T10161030  RH  091%=      5-min Rain = 0
KMUS 190925Z 29006KT M02/M03 A3018 RMK A01 T10181031  RH  091%=      5-min Rain = 0
KMUS 190930Z 27006KT M02/M03 A3018 RMK A01 T10201033  RH  092%=      5-min Rain = 0
KMUS 190935Z 27007KT M02/M04 A3018 RMK A01 T10231035  RH  092%=      5-min Rain = 0
KMUS 190940Z 26008KT M02/M03 A3018 RMK A01 T10221032  RH  093%=      5-min Rain = 0
KMUS 190945Z 26008KT M02/M03 A3019 RMK A01 T10191030  RH  093%=      5-min Rain = 0
KMUS 190950Z 26009KT M02/M03 A3019 RMK A01 T10151027  RH  092%=      5-min Rain = 0
KMUS 190955Z 26009KT M01/M03 A3019 RMK A01 T10131027  RH  091%=      5-min Rain = 0
KMUS 191000Z 26008KT M01/M03 A3019 RMK A01 T10131027  RH  091%=      5-min Rain = 0
KMUS 191005Z 26008KT M01/M03 A3019 RMK A01 T10131027  RH  090%=      5-min Rain = 0
KMUS 191010Z 26007KT M01/M03 A302 RMK A01 T10131029  RH  090%=      5-min Rain = 0
KMUS 191015Z 27006KT M02/M03 A302 RMK A01 T10161031  RH  090%=      5-min Rain = 0
KMUS 191020Z 27006KT M02/M03 A302 RMK A01 T10181032  RH  090%=      5-min Rain = 0
KMUS 191025Z 29006KT M02/M03 A302 RMK A01 T10201033  RH  091%=      5-min Rain = 0
KMUS 191030Z 30007KT M02/M03 A302 RMK A01 T10191032  RH  092%=      5-min Rain = 0
KMUS 191035Z 31009KT M02/M03 A302 RMK A01 T10171029  RH  092%=      5-min Rain = 0
KMUS 191040Z 30010KT M01/M03 A302 RMK A01 T10131027  RH  091%=      5-min Rain = 0
KMUS 191045Z 30010KT M01/M03 A302 RMK A01 T10091026  RH  089%=      5-min Rain = 0
KMUS 191050Z 30009KT M01/M03 A302 RMK A01 T10101027  RH  089%=      5-min Rain = 0
KMUS 191055Z 30010KT M01/M03 A302 RMK A01 T10111028  RH  089%=      5-min Rain = 0
KMUS 191100Z 30010KT M01/M03 A302 RMK A01 T10111028  RH  089%=      5-min Rain = 0
KMUS 191105Z 30011KT M01/M03 A302 RMK A01 T10111028  RH  088%=      5-min Rain = 0
KMUS 191110Z 30010KT M01/M03 A302 RMK A01 T10101029  RH  088%=      5-min Rain = 0
KMUS 191115Z 30011KT M01/M03 A302 RMK A01 T10121030  RH  088%=      5-min Rain = 0
KMUS 191120Z 31010KT M01/M03 A3019 RMK A01 T10121030  RH  088%=      5-min Rain = 0
KMUS 191125Z 30010KT M01/M03 A302 RMK A01 T10121031  RH  088%=      5-min Rain = 0
KMUS 191130Z 30010KT M01/M03 A302 RMK A01 T10131032  RH  088%=      5-min Rain = 0
KMUS 191135Z 31009KT M01/M03 A302 RMK A01 T10131031  RH  088%=      5-min Rain = 0
KMUS 191140Z 31010KT M01/M03 A302 RMK A01 T10101030  RH  087%=      5-min Rain = 0
KMUS 191145Z 30009KT M01/M03 A3021 RMK A01 T10091031  RH  086%=      5-min Rain = 0
KMUS 191150Z 29008KT M01/M03 A3021 RMK A01 T10111032  RH  087%=      5-min Rain = 0
KMUS 191155Z 29008KT M01/M03 A3021 RMK A01 T10131032  RH  087%=      5-min Rain = 0
KMUS 191200Z 30007KT M01/M03 A3021 RMK A01 T10141033  RH  087%=      5-min Rain = 0
KMUS 191205Z 29007KT M02/M04 A3021 RMK A01 T10161035  RH  088%=      5-min Rain = 0
KMUS 191210Z 30006KT M02/M04 A3022 RMK A01 T10181035  RH  088%=      5-min Rain = 0
KMUS 191215Z 30008KT M02/M04 A3022 RMK A01 T10181036  RH  088%=      5-min Rain = 0
KMUS 191220Z 30008KT M02/M04 A3022 RMK A01 T10181035  RH  089%=      5-min Rain = 0
KMUS 191225Z 30008KT M02/M04 A3023 RMK A01 T10171035  RH  088%=      5-min Rain = 0
KMUS 191230Z 29008KT M02/M03 A3023 RMK A01 T10171034  RH  089%=      5-min Rain = 0
KMUS 191235Z 29008KT M02/M04 A3023 RMK A01 T10171035  RH  088%=      5-min Rain = 0
KMUS 191240Z 29008KT M02/M04 A3023 RMK A01 T10171035  RH  088%=      5-min Rain = 0
KMUS 191245Z 30009KT M02/M03 A3024 RMK A01 T10171034  RH  088%=      5-min Rain = 0
KMUS 191250Z 30010KT M02/M03 A3024 RMK A01 T10151033  RH  088%=      5-min Rain = 0
KMUS 191255Z 30011KT M01/M03 A3024 RMK A01 T10131033  RH  087%=      5-min Rain = 0
KMUS 191300Z 30010KT M01/M03 A3024 RMK A01 T10131034  RH  087%=      5-min Rain = 0
KMUS 191305Z 31010KT M02/M04 A3025 RMK A01 T10151035  RH  087%=      5-min Rain = 0
KMUS 191310Z 31010KT M02/M04 A3025 RMK A01 T10171035  RH  088%=      5-min Rain = 0
KMUS 191315Z 31009KT M02/M04 A3025 RMK A01 T10171036  RH  087%=      5-min Rain = 0
KMUS 191320Z 30008KT M02/M04 A3025 RMK A01 T10201039  RH  087%=      5-min Rain = 0
KMUS 191325Z 30008KT M02/M04 A3026 RMK A01 T10241041  RH  088%=      5-min Rain = 0
KMUS 191330Z 30009KT M03/M04 A3026 RMK A01 T10261042  RH  089%=      5-min Rain = 0
KMUS 191335Z 29008KT M03/M04 A3026 RMK A01 T10271042  RH  089%=      5-min Rain = 0
KMUS 191340Z 29008KT M03/M04 A3026 RMK A01 T10281043  RH  090%=      5-min Rain = 0
KMUS 191345Z 29008KT M03/M04 A3026 RMK A01 T10281043  RH  090%=      5-min Rain = 0
KMUS 191350Z 29008KT M03/M04 A3027 RMK A01 T10271042  RH  090%=      5-min Rain = 0
KMUS 191355Z 28008KT M03/M04 A3027 RMK A01 T10251041  RH  090%=      5-min Rain = 0
KMUS 191400Z 28007KT M03/M04 A3027 RMK A01 T10251042  RH  089%=      5-min Rain = 0
KMUS 191405Z 28008KT M03/M04 A3027 RMK A01 T10271042  RH  090%=      5-min Rain = 0
KMUS 191410Z 28007KT M03/M04 A3027 RMK A01 T10261041  RH  090%=      5-min Rain = 0
KMUS 191415Z 28008KT M03/M04 A3028 RMK A01 T10251040  RH  090%=      5-min Rain = 0
KMUS 191420Z 28007KT M02/M04 A3028 RMK A01 T10241040  RH  089%=      5-min Rain = 0
KMUS 191425Z 28008KT M02/M04 A3029 RMK A01 T10241040  RH  089%=      5-min Rain = 0
KMUS 191430Z 28008KT M02/M04 A3029 RMK A01 T10231039  RH  089%=      5-min Rain = 0
KMUS 191435Z 28007KT M02/M04 A3029 RMK A01 T10211037  RH  089%=      5-min Rain = 0
KMUS 191440Z 29006KT M02/M03 A3029 RMK A01 T10171034  RH  089%=      5-min Rain = 0
KMUS 191445Z 29006KT M01/M03 A3029 RMK A01 T10131031  RH  088%=      5-min Rain = 0
KMUS 191450Z 29007KT M01/M03 A303 RMK A01 T10081029  RH  087%=      5-min Rain = 0
KMUS 191455Z 28007KT M01/M03 A303 RMK A01 T10051027  RH  086%=      5-min Rain = 0
KMUS 191500Z 28006KT M00/M03 A303 RMK A01 T10021025  RH  085%=      5-min Rain = 0
KMUS 191505Z 28007KT 00/M02 A3031 RMK A01 T00031022  RH  084%=      5-min Rain = 0
KMUS 191510Z 28007KT 01/M02 A3031 RMK A01 T00061020  RH  083%=      5-min Rain = 0
KMUS 191515Z 28008KT 01/M02 A3031 RMK A01 T00071021  RH  082%=      5-min Rain = 0
KMUS 191520Z 29007KT 01/M02 A3031 RMK A01 T00081020  RH  082%=      5-min Rain = 0
KMUS 191525Z 29007KT 01/M02 A3031 RMK A01 T00111018  RH  082%=      5-min Rain = 0
KMUS 191530Z 29007KT 01/M02 A3031 RMK A01 T00141016  RH  081%=      5-min Rain = 0
KMUS 191535Z 29007KT 02/M01 A3031 RMK A01 T00171013  RH  081%=      5-min Rain = 0
KMUS 191540Z 28006KT 02/M01 A3031 RMK A01 T00241010  RH  079%=      5-min Rain = 0
KMUS 191545Z 28008KT 03/M01 A3031 RMK A01 T00251012  RH  077%=      5-min Rain = 0
KMUS 191550Z 28007KT 03/M01 A3032 RMK A01 T00291010  RH  076%=      5-min Rain = 0
KMUS 191555Z 29008KT 03/M01 A3032 RMK A01 T00341010  RH  074%=      5-min Rain = 0
KMUS 191600Z 30008KT 04/M01 A3032 RMK A01 T00381012  RH  070%=      5-min Rain = 0
KMUS 191605Z 30008KT 04/M01 A3032 RMK A01 T00411011  RH  070%=      5-min Rain = 0
KMUS 191610Z 31008KT 04/M01 A3032 RMK A01 T00411012  RH  069%=      5-min Rain = 0
KMUS 191615Z 32008KT 04/M01 A3032 RMK A01 T00431008  RH  070%=      5-min Rain = 0
KMUS 191620Z 33009KT 05/M01 A3032 RMK A01 T00451009  RH  069%=      5-min Rain = 0
KMUS 191625Z 34009KT 05/M01 A3032 RMK A01 T00471008  RH  068%=      5-min Rain = 0
KMUS 191630Z 34009G15KT 05/M01 A3033 RMK A01 T00491009  RH  067%=      5-min Rain = 0
KMUS 191635Z 34010KT 05/M01 A3032 RMK A01 T00491012  RH  065%=      5-min Rain = 0
KMUS 191640Z 34010KT 05/M01 A3032 RMK A01 T00521010  RH  065%=      5-min Rain = 0
KMUS 191645Z 35010KT 05/M01 A3033 RMK A01 T00531011  RH  064%=      5-min Rain = 0
KMUS 191650Z 35010KT 06/M01 A3033 RMK A01 T00561010  RH  063%=      5-min Rain = 0
KMUS 191655Z 34010KT 06/M01 A3033 RMK A01 T00591010  RH  062%=      5-min Rain = 0
KMUS 191700Z 34013KT 06/M01 A3033 RMK A01 T00601014  RH  060%=      5-min Rain = 0
KMUS 191705Z 34013KT 06/M01 A3033 RMK A01 T00601014  RH  059%=      5-min Rain = 0
KMUS 191710Z 34012KT 06/M01 A3033 RMK A01 T00631010  RH  060%=      5-min Rain = 0
KMUS 191715Z 35012KT 07/M01 A3033 RMK A01 T00651011  RH  059%=      5-min Rain = 0
KMUS 191720Z 35013G20KT 06/M01 A3033 RMK A01 T00641013  RH  059%=      5-min Rain = 0
KMUS 191725Z 35012G17KT 07/M01 A3033 RMK A01 T00671011  RH  058%=      5-min Rain = 0
KMUS 191730Z 35013G18KT 07/M01 A3033 RMK A01 T00681013  RH  057%=      5-min Rain = 0
KMUS 191735Z 36013G18KT 07/M01 A3033 RMK A01 T00681012  RH  057%=      5-min Rain = 0
KMUS 191740Z 00013KT 07/M01 A3033 RMK A01 T00681012  RH  057%=      5-min Rain = 0
KMUS 191745Z 36013G18KT 07/M01 A3033 RMK A01 T00691011  RH  057%=      5-min Rain = 0
KMUS 191750Z 00013G18KT 07/M01 A3033 RMK A01 T00701012  RH  056%=      5-min Rain = 0
KMUS 191755Z 36011G16KT 07/M01 A3033 RMK A01 T00711011  RH  057%=      5-min Rain = 0
KMUS 191800Z 35011KT 07/M01 A3033 RMK A01 T00721012  RH  056%=      5-min Rain = 0
KMUS 191805Z 00012KT 07/M01 A3033 RMK A01 T00731010  RH  056%=      5-min Rain = 0
KMUS 191810Z 36012KT 07/M01 A3033 RMK A01 T00731010  RH  056%=      5-min Rain = 0
KMUS 191815Z 01012KT 07/M01 A3033 RMK A01 T00731011  RH  056%=      5-min Rain = 0
KMUS 191820Z 01011KT 08/M01 A3032 RMK A01 T00751009  RH  056%=      5-min Rain = 0
KMUS 191825Z 01011G16KT 08/M01 A3032 RMK A01 T00761010  RH  055%=      5-min Rain = 0
KMUS 191830Z 36011KT 08/M01 A3032 RMK A01 T00761012  RH  054%=      5-min Rain = 0
KMUS 191835Z 36012G17KT 08/M01 A3032 RMK A01 T00761011  RH  055%=      5-min Rain = 0
KMUS 191840Z 35010KT 08/M01 A3032 RMK A01 T00781010  RH  055%=      5-min Rain = 0
KMUS 191845Z 36010KT 08/M01 A3031 RMK A01 T00791011  RH  054%=      5-min Rain = 0
KMUS 191850Z 35010G15KT 08/M01 A3031 RMK A01 T00801010  RH  053%=      5-min Rain = 0
KMUS 191855Z 35010KT 08/M01 A3031 RMK A01 T00811010  RH  053%=      5-min Rain = 0
KMUS 191900Z 35009G15KT 08/M01 A3031 RMK A01 T00821011  RH  052%=      5-min Rain = 0
KMUS 191905Z 34010G16KT 08/M01 A303 RMK A01 T00821010  RH  053%=      5-min Rain = 0
KMUS 191910Z 35008G13KT 08/M01 A303 RMK A01 T00831010  RH  053%=      5-min Rain = 0
KMUS 191915Z 34007KT 08/M01 A303 RMK A01 T00841010  RH  052%=      5-min Rain = 0
KMUS 191920Z 35007G13KT 09/M01 A303 RMK A01 T00851007  RH  053%=      5-min Rain = 0
KMUS 191925Z 33009KT 09/M01 A303 RMK A01 T00901010  RH  050%=      5-min Rain = 0
KMUS 191930Z 34005G10KT 09/M01 A303 RMK A01 T00901009  RH  050%=      5-min Rain = 0
KMUS 191935Z 33008KT 09/M01 A303 RMK A01 T00891009  RH  051%=      5-min Rain = 0
KMUS 191940Z 33007KT 09/M01 A303 RMK A01 T00891009  RH  051%=      5-min Rain = 0
KMUS 191945Z 33007KT 09/M01 A3029 RMK A01 T00911008  RH  051%=      5-min Rain = 0
KMUS 191950Z 35007KT 09/M01 A3029 RMK A01 T00911008  RH  051%=      5-min Rain = 0
KMUS 191955Z 33003G11KT 09/M01 A3029 RMK A01 T00911009  RH  050%=      5-min Rain = 0
KMUS 192000Z 33006G12KT 09/M01 A3028 RMK A01 T00931010  RH  049%=      5-min Rain = 0
KMUS 192005Z 34007G14KT 09/M01 A3028 RMK A01 T00941010  RH  049%=      5-min Rain = 0
KMUS 192010Z 00006KT 10/M01 A3028 RMK A01 T00961008  RH  049%=      5-min Rain = 0
KMUS 192015Z 35006KT 10/M01 A3027 RMK A01 T00971007  RH  049%=      5-min Rain = 0
KMUS 192020Z 29003G8KT 10/M02 A3027 RMK A01 T00981015  RH  046%=      5-min Rain = 0
KMUS 192025Z 27003KT 10/M01 A3027 RMK A01 T01011013  RH  045%=      5-min Rain = 0
KMUS 192030Z 31006G11KT 11/M02 A3027 RMK A01 T01051018  RH  043%=      5-min Rain = 0
KMUS 192035Z 34006KT 11/M02 A3026 RMK A01 T01081017  RH  042%=      5-min Rain = 0
KMUS 192040Z 01005KT 10/M02 A3026 RMK A01 T01031020  RH  042%=      5-min Rain = 0
KMUS 192045Z 34004KT 10/M02 A3026 RMK A01 T01021021  RH  042%=      5-min Rain = 0
KMUS 192050Z 32004G9KT 11/M03 A3026 RMK A01 T01051025  RH  040%=      5-min Rain = 0
KMUS 192055Z 33006KT 11/M03 A3026 RMK A01 T01051025  RH  040%=      5-min Rain = 0
KMUS 192100Z 34005KT 10/M03 A3026 RMK A01 T01041025  RH  041%=      5-min Rain = 0
KMUS 192105Z 33001KT 11/M02 A3025 RMK A01 T01061023  RH  041%=      5-min Rain = 0
KMUS 192110Z 27003KT 11/M03 A3025 RMK A01 T01081029  RH  038%=      5-min Rain = 0
KMUS 192115Z 22004KT 11/M03 A3025 RMK A01 T01071029  RH  039%=      5-min Rain = 0
KMUS 192120Z 24002KT 11/M03 A3025 RMK A01 T01101027  RH  038%=      5-min Rain = 0
KMUS 192125Z 32003KT 11/M03 A3025 RMK A01 T01131032  RH  036%=      5-min Rain = 0
KMUS 192130Z 00002KT 11/M03 A3025 RMK A01 T01101033  RH  037%=      5-min Rain = 0
KMUS 192135Z 05002KT 11/M03 A3025 RMK A01 T01091034  RH  037%=      5-min Rain = 0
KMUS 192140Z 15003KT 11/M04 A3025 RMK A01 T01101035  RH  036%=      5-min Rain = 0
KMUS 192145Z 17003KT 11/M04 A3025 RMK A01 T01091036  RH  036%=      5-min Rain = 0
KMUS 192150Z 12003KT 11/M04 A3024 RMK A01 T01111036  RH  036%=      5-min Rain = 0
KMUS 192155Z 11003KT 11/M04 A3024 RMK A01 T01091039  RH  035%=      5-min Rain = 0
KMUS 192200Z 07003KT 11/M04 A3024 RMK A01 T01091040  RH  035%=      5-min Rain = 0
KMUS 192205Z 03004KT 11/M04 A3024 RMK A01 T01101040  RH  035%=      5-min Rain = 0
KMUS 192210Z 36004KT 11/M04 A3024 RMK A01 T01111039  RH  035%=      5-min Rain = 0
KMUS 192215Z 31002KT 11/M04 A3024 RMK A01 T01121041  RH  034%=      5-min Rain = 0
KMUS 192220Z 33003KT 12/M04 A3024 RMK A01 T01161040  RH  033%=      5-min Rain = 0
KMUS 192225Z 32003KT 12/M04 A3024 RMK A01 T01161040  RH  033%=      5-min Rain = 0
KMUS 192230Z 24003KT 12/M04 A3024 RMK A01 T01161042  RH  033%=      5-min Rain = 0
KMUS 192235Z 21004KT 12/M04 A3024 RMK A01 T01171042  RH  033%=      5-min Rain = 0
KMUS 192240Z 19003KT 12/M04 A3024 RMK A01 T01181043  RH  032%=      5-min Rain = 0
KMUS 192245Z 22002KT 12/M05 A3024 RMK A01 T01171045  RH  032%=      5-min Rain = 0
KMUS 192250Z 10002KT 12/M05 A3024 RMK A01 T01161045  RH  032%=      5-min Rain = 0
KMUS 192255Z 13002KT 12/M04 A3024 RMK A01 T01151044  RH  033%=      5-min Rain = 0
KMUS 192300Z 18000KT 12/M05 A3024 RMK A01 T01171045  RH  032%=      5-min Rain = 0
KMUS 192305Z 22001KT 12/M04 A3024 RMK A01 T01211044  RH  031%=      5-min Rain = 0
KMUS 192310Z 21001KT 12/M05 A3024 RMK A01 T01241046  RH  030%=      5-min Rain = 0
KMUS 192315Z 16001KT 12/M05 A3024 RMK A01 T01231047  RH  030%=      5-min Rain = 0
KMUS 192320Z 09000KT 12/M05 A3024 RMK A01 T01241046  RH  030%=      5-min Rain = 0
KMUS 192325Z 11001KT 12/M05 A3024 RMK A01 T01191046  RH  031%=      5-min Rain = 0
KMUS 192330Z 13002KT 12/M05 A3024 RMK A01 T01181046  RH  032%=      5-min Rain = 0
KMUS 192335Z 08005KT 11/M04 A3024 RMK A01 T01101035  RH  036%=      5-min Rain = 0
KMUS 192340Z 08004KT 10/M03 A3024 RMK A01 T01031032  RH  039%=      5-min Rain = 0
KMUS 192345Z 07004KT 10/M03 A3024 RMK A01 T00971031  RH  041%=      5-min Rain = 0
KMUS 192350Z 08005KT 09/M03 A3024 RMK A01 T00911031  RH  042%=      5-min Rain = 0
KMUS 192355Z 08005KT 08/M03 A3024 RMK A01 T00841031  RH  045%=      5-min Rain = 0
KMUS 200000Z 08005KT 08/M03 A3024 RMK A01 T00771031  RH  047%=      5-min Rain = 0
KMUS 200005Z 10004KT 07/M03 A3023 RMK A01 T00701031  RH  049%=      5-min Rain = 0
KMUS 200010Z 14002KT 06/M03 A3023 RMK A01 T00631032  RH  051%=      5-min Rain = 0
KMUS 200015Z 11004KT 06/M03 A3024 RMK A01 T00561034  RH  053%=      5-min Rain = 0
KMUS 200020Z 10006KT 05/M04 A3024 RMK A01 T00481035  RH  055%=      5-min Rain = 0
KMUS 200025Z 10006KT 04/M04 A3024 RMK A01 T00401035  RH  058%=      5-min Rain = 0
KMUS 200030Z 10005KT 03/M04 A3024 RMK A01 T00341036  RH  060%=      5-min Rain = 0
KMUS 200035Z 10004KT 03/M04 A3024 RMK A01 T00301038  RH  061%=      5-min Rain = 0
KMUS 200040Z 11004KT 03/M04 A3024 RMK A01 T00271036  RH  063%=      5-min Rain = 0
KMUS 200045Z 11006KT 03/M04 A3024 RMK A01 T00261035  RH  065%=      5-min Rain = 0
KMUS 200050Z 11006KT 02/M04 A3024 RMK A01 T00211036  RH  066%=      5-min Rain = 0
KMUS 200055Z 11004KT 02/M04 A3024 RMK A01 T00201035  RH  067%=      5-min Rain = 0
KMUS 200100Z 12004KT 02/M04 A3024 RMK A01 T00191037  RH  067%=      5-min Rain = 0
KMUS 200105Z 12004KT 02/M04 A3024 RMK A01 T00171038  RH  067%=      5-min Rain = 0
KMUS 200110Z 12007KT 01/M04 A3024 RMK A01 T00141040  RH  068%=      5-min Rain = 0
KMUS 200115Z 12006KT 01/M04 A3023 RMK A01 T00091042  RH  069%=      5-min Rain = 0
KMUS 200120Z 12009KT 01/M04 A3023 RMK A01 T00091035  RH  073%=      5-min Rain = 0
KMUS 200125Z 12008KT 02/M03 A3022 RMK A01 T00191032  RH  069%=      5-min Rain = 0
KMUS 200130Z 13007KT 02/M03 A3023 RMK A01 T00181034  RH  069%=      5-min Rain = 0
KMUS 200135Z 13006KT 02/M03 A3023 RMK A01 T00151034  RH  070%=      5-min Rain = 0
KMUS 200140Z 13005KT 01/M03 A3024 RMK A01 T00141033  RH  071%=      5-min Rain = 0
KMUS 200145Z 12006KT 01/M04 A3023 RMK A01 T00101037  RH  072%=      5-min Rain = 0
KMUS 200150Z 13004KT 00/M04 A3025 RMK A01 T00031039  RH  074%=      5-min Rain = 0
KMUS 200155Z 14003KT 00/M04 A3025 RMK A01 T00031035  RH  076%=      5-min Rain = 0
KMUS 200200Z 14003KT 00/M03 A3025 RMK A01 T00031034  RH  076%=      5-min Rain = 0
KMUS 200205Z 15004KT 01/M03 A3025 RMK A01 T00051031  RH  077%=      5-min Rain = 0
KMUS 200210Z 15004KT 01/M03 A3026 RMK A01 T00061032  RH  077%=      5-min Rain = 0
KMUS 200215Z 15004KT 00/M04 A3026 RMK A01 T00031035  RH  076%=      5-min Rain = 0
KMUS 200220Z 15006KT 00/04 A3026 RMK A01 T00-00-37  RH  077%=      5-min Rain = 0
KMUS 200225Z 14005KT M00/M04 A3026 RMK A01 T10041039  RH  077%=      5-min Rain = 0
KMUS 200230Z 16006KT M01/M04 A3026 RMK A01 T10051037  RH  079%=      5-min Rain = 0
KMUS 200235Z 16008KT M00/M03 A3026 RMK A01 T10011031  RH  081%=      5-min Rain = 0
KMUS 200240Z 16008KT 00/M03 A3026 RMK A01 T00031029  RH  079%=      5-min Rain = 0
KMUS 200245Z 15007KT 00/M03 A3025 RMK A01 T00041031  RH  078%=      5-min Rain = 0
KMUS 200250Z 15007KT 00/M03 A3025 RMK A01 T00021032  RH  079%=      5-min Rain = 0
KMUS 200255Z 15007KT 00/M03 A3024 RMK A01 T00031029  RH  080%=      5-min Rain = 0
KMUS 200300Z 16006KT 00/M03 A3025 RMK A01 T00041029  RH  079%=      5-min Rain = 0
KMUS 200305Z 16006KT 00/M03 A3025 RMK A01 T00031030  RH  079%=      5-min Rain = 0
KMUS 200310Z 16006KT 00/M03 A3025 RMK A01 T00021031  RH  079%=      5-min Rain = 0
KMUS 200315Z 16006KT 00/03 A3025 RMK A01 T00-00-33  RH  079%=      5-min Rain = 0
KMUS 200320Z 17005KT M00/M03 A3024 RMK A01 T10021033  RH  080%=      5-min Rain = 0
KMUS 200325Z 18005KT M00/M03 A3024 RMK A01 T10031033  RH  081%=      5-min Rain = 0
KMUS 200330Z 18004KT M01/M04 A3024 RMK A01 T10051035  RH  080%=      5-min Rain = 0
KMUS 200335Z 19003KT M01/M04 A3025 RMK A01 T10071036  RH  081%=      5-min Rain = 0
KMUS 200340Z 19004KT M01/M04 A3025 RMK A01 T10081036  RH  082%=      5-min Rain = 0
KMUS 200345Z 22001KT M01/M04 A3025 RMK A01 T10101037  RH  083%=      5-min Rain = 0
KMUS 200350Z 20000KT M01/M04 A3026 RMK A01 T10101036  RH  084%=      5-min Rain = 0
KMUS 200355Z 22000KT M01/M04 A3025 RMK A01 T10121038  RH  083%=      5-min Rain = 0
KMUS 200400Z 18001KT M02/M04 A3026 RMK A01 T10171044  RH  082%=      5-min Rain = 0
KMUS 200405Z 19003KT M02/M05 A3025 RMK A01 T10221047  RH  083%=      5-min Rain = 0
KMUS 200410Z 19006KT M02/M04 A3025 RMK A01 T10201041  RH  086%=      5-min Rain = 0
KMUS 200415Z 19006KT M02/M04 A3024 RMK A01 T10171039  RH  085%=      5-min Rain = 0
KMUS 200420Z 18006KT M02/M04 A3024 RMK A01 T10151036  RH  086%=      5-min Rain = 0
KMUS 200425Z 18005KT M01/M03 A3024 RMK A01 T10121033  RH  086%=      5-min Rain = 0
KMUS 200430Z 18005KT M01/M03 A3024 RMK A01 T10101032  RH  085%=      5-min Rain = 0
KMUS 200435Z 17005KT M01/M03 A3024 RMK A01 T10101034  RH  084%=      5-min Rain = 0
KMUS 200440Z 17005KT M01/M04 A3024 RMK A01 T10121036  RH  084%=      5-min Rain = 0
KMUS 200445Z 16005KT M02/M04 A3023 RMK A01 T10151040  RH  084%=      5-min Rain = 0
KMUS 200450Z 18005KT M02/M04 A3024 RMK A01 T10181040  RH  085%=      5-min Rain = 0
KMUS 200455Z 19005KT M02/M04 A3024 RMK A01 T10161037  RH  086%=      5-min Rain = 0
KMUS 200500Z 17005KT M02/M04 A3024 RMK A01 T10151036  RH  086%=      5-min Rain = 0
KMUS 200505Z 16003KT M01/M04 A3025 RMK A01 T10141036  RH  086%=      5-min Rain = 0
KMUS 200510Z 14003KT M02/M04 A3025 RMK A01 T10151037  RH  085%=      5-min Rain = 0
KMUS 200515Z 15004KT M02/M04 A3025 RMK A01 T10181040  RH  085%=      5-min Rain = 0
KMUS 200520Z 17006KT M02/M04 A3025 RMK A01 T10181038  RH  087%=      5-min Rain = 0
KMUS 200525Z 17006KT M01/M03 A3025 RMK A01 T10141033  RH  087%=      5-min Rain = 0
KMUS 200530Z 16005KT M01/M03 A3026 RMK A01 T10101032  RH  086%=      5-min Rain = 0
KMUS 200535Z 16006KT M01/M04 A3026 RMK A01 T10111035  RH  084%=      5-min Rain = 0
KMUS 200540Z 15006KT M01/M04 A3026 RMK A01 T10111035  RH  084%=      5-min Rain = 0
KMUS 200545Z 16005KT M01/M04 A3026 RMK A01 T10121035  RH  084%=      5-min Rain = 0
KMUS 200550Z 16005KT M01/M03 A3026 RMK A01 T10111034  RH  085%=      5-min Rain = 0
KMUS 200555Z 16005KT M01/M03 A3026 RMK A01 T10091033  RH  084%=      5-min Rain = 0

Page generated in 0.0542 seconds.